sensor_id;sensor_type;location;lat;lon;timestamp;temperature;humidity
16968;DHT22;8600;54.338;10.128;2022-09-20T00:00:35;9.00;99.90
16968;DHT22;8600;54.338;10.128;2022-09-20T00:03:02;9.00;99.90
16968;DHT22;8600;54.338;10.128;2022-09-20T00:05:32;9.00;99.90
16968;DHT22;8600;54.338;10.128;2022-09-20T00:08:01;9.00;99.90
16968;DHT22;8600;54.338;10.128;2022-09-20T00:10:29;8.90;99.90
16968;DHT22;8600;54.338;10.128;2022-09-20T00:12:58;8.90;99.90
16968;DHT22;8600;54.338;10.128;2022-09-20T00:15:25;8.90;99.90
16968;DHT22;8600;54.338;10.128;2022-09-20T00:17:52;8.90;99.90
16968;DHT22;8600;54.338;10.128;2022-09-20T00:20:20;8.90;99.90
16968;DHT22;8600;54.338;10.128;2022-09-20T00:22:47;8.90;99.90
16968;DHT22;8600;54.338;10.128;2022-09-20T00:25:16;8.90;99.90
16968;DHT22;8600;54.338;10.128;2022-09-20T00:27:43;8.90;99.90
16968;DHT22;8600;54.338;10.128;2022-09-20T00:30:14;8.90;99.90
16968;DHT22;8600;54.338;10.128;2022-09-20T00:32:41;8.90;99.90
16968;DHT22;8600;54.338;10.128;2022-09-20T00:35:08;8.80;99.90
16968;DHT22;8600;54.338;10.128;2022-09-20T00:37:37;8.80;99.90
16968;DHT22;8600;54.338;10.128;2022-09-20T00:40:06;8.80;99.90
16968;DHT22;8600;54.338;10.128;2022-09-20T00:42:36;8.80;99.90
16968;DHT22;8600;54.338;10.128;2022-09-20T00:45:04;8.80;99.90
16968;DHT22;8600;54.338;10.128;2022-09-20T00:47:38;8.80;99.90
16968;DHT22;8600;54.338;10.128;2022-09-20T00:50:14;8.80;99.90
16968;DHT22;8600;54.338;10.128;2022-09-20T00:52:45;8.70;99.90
16968;DHT22;8600;54.338;10.128;2022-09-20T00:55:14;8.80;99.90
16968;DHT22;8600;54.338;10.128;2022-09-20T00:57:46;8.70;99.90
16968;DHT22;8600;54.338;10.128;2022-09-20T01:00:14;8.70;99.90
16968;DHT22;8600;54.338;10.128;2022-09-20T01:02:45;8.70;99.90
16968;DHT22;8600;54.338;10.128;2022-09-20T01:05:14;8.70;99.90
16968;DHT22;8600;54.338;10.128;2022-09-20T01:07:45;8.60;99.90
16968;DHT22;8600;54.338;10.128;2022-09-20T01:10:13;8.60;99.90
16968;DHT22;8600;54.338;10.128;2022-09-20T01:12:42;8.60;99.90
16968;DHT22;8600;54.338;10.128;2022-09-20T01:15:12;8.60;99.90
16968;DHT22;8600;54.338;10.128;2022-09-20T01:17:43;8.60;99.90
16968;DHT22;8600;54.338;10.128;2022-09-20T01:20:15;8.60;99.90
16968;DHT22;8600;54.338;10.128;2022-09-20T01:28:31;8.60;99.90
16968;DHT22;8600;54.338;10.128;2022-09-20T01:31:02;8.60;99.90
16968;DHT22;8600;54.338;10.128;2022-09-20T01:33:36;8.60;99.90
16968;DHT22;8600;54.338;10.128;2022-09-20T01:36:11;8.60;99.90
16968;DHT22;8600;54.338;10.128;2022-09-20T01:38:44;8.60;99.90
16968;DHT22;8600;54.338;10.128;2022-09-20T01:41:25;8.60;99.90
16968;DHT22;8600;54.338;10.128;2022-09-20T01:44:00;8.60;99.90
16968;DHT22;8600;54.338;10.128;2022-09-20T01:46:31;8.50;99.90
16968;DHT22;8600;54.338;10.128;2022-09-20T01:49:08;8.50;99.90
16968;DHT22;8600;54.338;10.128;2022-09-20T02:01:14;8.50;99.90
16968;DHT22;8600;54.338;10.128;2022-09-20T02:09:57;8.40;99.90
16968;DHT22;8600;54.338;10.128;2022-09-20T02:12:38;8.40;99.90
16968;DHT22;8600;54.338;10.128;2022-09-20T02:18:17;8.40;99.90
16968;DHT22;8600;54.338;10.128;2022-09-20T02:20:51;8.30;99.90
16968;DHT22;8600;54.338;10.128;2022-09-20T02:23:35;8.30;99.90
16968;DHT22;8600;54.338;10.128;2022-09-20T02:26:22;8.30;99.90
16968;DHT22;8600;54.338;10.128;2022-09-20T02:29:01;8.20;99.90
16968;DHT22;8600;54.338;10.128;2022-09-20T02:31:49;8.20;99.90
16968;DHT22;8600;54.338;10.128;2022-09-20T02:34:38;8.20;99.90
16968;DHT22;8600;54.338;10.128;2022-09-20T02:37:21;8.10;99.90
16968;DHT22;8600;54.338;10.128;2022-09-20T02:40:00;8.10;99.90
16968;DHT22;8600;54.338;10.128;2022-09-20T02:42:36;8.10;99.90
16968;DHT22;8600;54.338;10.128;2022-09-20T02:45:10;8.00;99.90
16968;DHT22;8600;54.338;10.128;2022-09-20T02:47:44;8.00;99.90
16968;DHT22;8600;54.338;10.128;2022-09-20T02:50:26;8.00;99.90
16968;DHT22;8600;54.338;10.128;2022-09-20T02:53:07;8.00;99.90
16968;DHT22;8600;54.338;10.128;2022-09-20T02:55:42;8.00;99.90
16968;DHT22;8600;54.338;10.128;2022-09-20T02:58:35;8.00;99.90
16968;DHT22;8600;54.338;10.128;2022-09-20T03:01:12;8.00;99.90
16968;DHT22;8600;54.338;10.128;2022-09-20T03:03:51;8.00;99.90
16968;DHT22;8600;54.338;10.128;2022-09-20T03:06:28;8.00;99.90
16968;DHT22;8600;54.338;10.128;2022-09-20T03:09:04;8.00;99.90
16968;DHT22;8600;54.338;10.128;2022-09-20T03:11:36;7.90;99.90
16968;DHT22;8600;54.338;10.128;2022-09-20T03:14:13;7.90;99.90
16968;DHT22;8600;54.338;10.128;2022-09-20T03:17:00;7.90;99.90
16968;DHT22;8600;54.338;10.128;2022-09-20T03:19:38;7.90;99.90
16968;DHT22;8600;54.338;10.128;2022-09-20T03:22:18;7.90;99.90
16968;DHT22;8600;54.338;10.128;2022-09-20T03:25:02;7.90;99.90
16968;DHT22;8600;54.338;10.128;2022-09-20T03:27:35;7.80;99.90
16968;DHT22;8600;54.338;10.128;2022-09-20T03:30:23;7.80;99.90
16968;DHT22;8600;54.338;10.128;2022-09-20T03:33:00;7.80;99.90
16968;DHT22;8600;54.338;10.128;2022-09-20T03:35:44;7.80;99.90
16968;DHT22;8600;54.338;10.128;2022-09-20T03:38:37;7.80;99.90
16968;DHT22;8600;54.338;10.128;2022-09-20T03:41:23;7.80;99.90
16968;DHT22;8600;54.338;10.128;2022-09-20T03:44:08;7.70;99.90
16968;DHT22;8600;54.338;10.128;2022-09-20T03:46:43;7.80;99.90
16968;DHT22;8600;54.338;10.128;2022-09-20T03:49:46;7.70;99.90
16968;DHT22;8600;54.338;10.128;2022-09-20T03:52:40;7.70;99.90
16968;DHT22;8600;54.338;10.128;2022-09-20T03:58:21;7.70;99.90
16968;DHT22;8600;54.338;10.128;2022-09-20T04:01:05;7.70;99.90
16968;DHT22;8600;54.338;10.128;2022-09-20T04:03:44;7.70;99.90
16968;DHT22;8600;54.338;10.128;2022-09-20T04:06:36;7.70;99.90
16968;DHT22;8600;54.338;10.128;2022-09-20T04:09:24;7.70;99.90
16968;DHT22;8600;54.338;10.128;2022-09-20T04:12:00;7.70;99.90
16968;DHT22;8600;54.338;10.128;2022-09-20T04:14:36;7.70;99.90
16968;DHT22;8600;54.338;10.128;2022-09-20T04:17:19;7.80;99.90
16968;DHT22;8600;54.338;10.128;2022-09-20T04:19:55;7.80;99.90
16968;DHT22;8600;54.338;10.128;2022-09-20T04:22:24;7.70;99.90
16968;DHT22;8600;54.338;10.128;2022-09-20T04:24:58;7.60;99.90
16968;DHT22;8600;54.338;10.128;2022-09-20T04:27:32;7.50;99.90
16968;DHT22;8600;54.338;10.128;2022-09-20T04:30:05;7.50;99.90
16968;DHT22;8600;54.338;10.128;2022-09-20T04:32:39;7.50;99.90
16968;DHT22;8600;54.338;10.128;2022-09-20T04:35:13;7.50;99.90
16968;DHT22;8600;54.338;10.128;2022-09-20T04:38:02;7.60;99.90
16968;DHT22;8600;54.338;10.128;2022-09-20T04:40:40;7.60;99.90
16968;DHT22;8600;54.338;10.128;2022-09-20T04:44:05;7.60;99.90
16968;DHT22;8600;54.338;10.128;2022-09-20T04:47:00;7.60;99.90
16968;DHT22;8600;54.338;10.128;2022-09-20T04:53:35;7.60;99.90
16968;DHT22;8600;54.338;10.128;2022-09-20T04:56:18;7.60;99.90
16968;DHT22;8600;54.338;10.128;2022-09-20T04:58:54;7.70;99.90
16968;DHT22;8600;54.338;10.128;2022-09-20T05:02:08;7.60;99.90
16968;DHT22;8600;54.338;10.128;2022-09-20T05:05:06;7.70;99.90
16968;DHT22;8600;54.338;10.128;2022-09-20T05:11:09;7.70;99.90
16968;DHT22;8600;54.338;10.128;2022-09-20T05:13:55;7.70;99.90
16968;DHT22;8600;54.338;10.128;2022-09-20T05:16:33;7.70;99.90
16968;DHT22;8600;54.338;10.128;2022-09-20T05:19:24;7.70;99.90
16968;DHT22;8600;54.338;10.128;2022-09-20T05:27:46;7.70;99.90
16968;DHT22;8600;54.338;10.128;2022-09-20T05:30:25;7.60;99.90
16968;DHT22;8600;54.338;10.128;2022-09-20T05:33:02;7.70;99.90
16968;DHT22;8600;54.338;10.128;2022-09-20T05:35:33;7.70;99.90
16968;DHT22;8600;54.338;10.128;2022-09-20T05:38:08;7.80;99.90
16968;DHT22;8600;54.338;10.128;2022-09-20T05:40:49;7.70;99.90
16968;DHT22;8600;54.338;10.128;2022-09-20T05:43:25;7.70;99.90
16968;DHT22;8600;54.338;10.128;2022-09-20T05:46:04;7.70;99.90
16968;DHT22;8600;54.338;10.128;2022-09-20T05:51:15;7.80;99.90
16968;DHT22;8600;54.338;10.128;2022-09-20T05:54:00;7.90;99.90
16968;DHT22;8600;54.338;10.128;2022-09-20T05:56:38;8.00;99.90
16968;DHT22;8600;54.338;10.128;2022-09-20T05:59:29;8.00;99.90
16968;DHT22;8600;54.338;10.128;2022-09-20T06:02:09;8.10;99.90
16968;DHT22;8600;54.338;10.128;2022-09-20T06:04:44;8.10;99.90
16968;DHT22;8600;54.338;10.128;2022-09-20T06:07:22;8.20;99.90
16968;DHT22;8600;54.338;10.128;2022-09-20T06:10:17;8.20;99.90
16968;DHT22;8600;54.338;10.128;2022-09-20T06:12:52;8.40;99.90
16968;DHT22;8600;54.338;10.128;2022-09-20T06:15:26;8.40;99.90
16968;DHT22;8600;54.338;10.128;2022-09-20T06:18:09;8.50;99.90
16968;DHT22;8600;54.338;10.128;2022-09-20T06:20:47;8.70;99.90
16968;DHT22;8600;54.338;10.128;2022-09-20T06:23:16;8.80;99.90
16968;DHT22;8600;54.338;10.128;2022-09-20T06:25:49;9.10;99.90
16968;DHT22;8600;54.338;10.128;2022-09-20T06:28:22;9.20;99.90
16968;DHT22;8600;54.338;10.128;2022-09-20T06:30:51;9.30;99.90
16968;DHT22;8600;54.338;10.128;2022-09-20T06:33:20;9.40;99.90
16968;DHT22;8600;54.338;10.128;2022-09-20T06:35:51;9.60;99.90
16968;DHT22;8600;54.338;10.128;2022-09-20T06:38:42;9.60;99.90
16968;DHT22;8600;54.338;10.128;2022-09-20T06:41:30;9.90;99.90
16968;DHT22;8600;54.338;10.128;2022-09-20T06:44:03;10.00;99.90
16968;DHT22;8600;54.338;10.128;2022-09-20T06:46:33;10.10;99.90
16968;DHT22;8600;54.338;10.128;2022-09-20T06:49:02;9.90;99.90
16968;DHT22;8600;54.338;10.128;2022-09-20T06:51:33;10.00;99.90
16968;DHT22;8600;54.338;10.128;2022-09-20T06:54:01;10.00;99.90
16968;DHT22;8600;54.338;10.128;2022-09-20T06:56:30;10.10;99.90
16968;DHT22;8600;54.338;10.128;2022-09-20T06:58:58;10.30;99.90
16968;DHT22;8600;54.338;10.128;2022-09-20T07:01:28;10.30;99.90
16968;DHT22;8600;54.338;10.128;2022-09-20T07:03:56;10.20;99.90
16968;DHT22;8600;54.338;10.128;2022-09-20T07:06:24;10.30;99.90
16968;DHT22;8600;54.338;10.128;2022-09-20T07:08:53;10.40;99.90
16968;DHT22;8600;54.338;10.128;2022-09-20T07:11:20;10.50;99.90
16968;DHT22;8600;54.338;10.128;2022-09-20T07:13:49;10.60;99.90
16968;DHT22;8600;54.338;10.128;2022-09-20T07:16:17;10.60;99.90
16968;DHT22;8600;54.338;10.128;2022-09-20T07:18:45;10.70;99.90
16968;DHT22;8600;54.338;10.128;2022-09-20T07:21:13;10.60;99.90
16968;DHT22;8600;54.338;10.128;2022-09-20T07:23:42;10.60;99.90
16968;DHT22;8600;54.338;10.128;2022-09-20T07:26:17;10.60;99.90
16968;DHT22;8600;54.338;10.128;2022-09-20T07:28:44;10.70;99.90
16968;DHT22;8600;54.338;10.128;2022-09-20T07:31:11;10.80;99.90
16968;DHT22;8600;54.338;10.128;2022-09-20T07:33:38;10.80;99.90
16968;DHT22;8600;54.338;10.128;2022-09-20T07:36:05;10.90;99.90
16968;DHT22;8600;54.338;10.128;2022-09-20T07:38:32;10.90;99.90
16968;DHT22;8600;54.338;10.128;2022-09-20T07:41:01;11.00;99.90
16968;DHT22;8600;54.338;10.128;2022-09-20T07:43:29;11.10;99.90
16968;DHT22;8600;54.338;10.128;2022-09-20T07:46:00;11.20;99.90
16968;DHT22;8600;54.338;10.128;2022-09-20T07:48:30;11.20;99.90
16968;DHT22;8600;54.338;10.128;2022-09-20T07:51:00;11.30;99.90
16968;DHT22;8600;54.338;10.128;2022-09-20T07:53:30;11.40;99.90
16968;DHT22;8600;54.338;10.128;2022-09-20T07:56:00;11.50;99.90
16968;DHT22;8600;54.338;10.128;2022-09-20T07:58:28;11.60;99.90
16968;DHT22;8600;54.338;10.128;2022-09-20T08:00:57;11.60;99.90
16968;DHT22;8600;54.338;10.128;2022-09-20T08:03:25;11.70;99.90
16968;DHT22;8600;54.338;10.128;2022-09-20T08:05:58;11.70;99.90
16968;DHT22;8600;54.338;10.128;2022-09-20T08:08:25;11.80;99.90
16968;DHT22;8600;54.338;10.128;2022-09-20T08:10:52;11.90;99.90
16968;DHT22;8600;54.338;10.128;2022-09-20T08:13:21;11.70;99.90
16968;DHT22;8600;54.338;10.128;2022-09-20T08:15:48;11.80;99.90
16968;DHT22;8600;54.338;10.128;2022-09-20T08:18:15;11.90;99.90
16968;DHT22;8600;54.338;10.128;2022-09-20T08:20:42;11.90;99.90
16968;DHT22;8600;54.338;10.128;2022-09-20T08:23:09;12.00;99.90
16968;DHT22;8600;54.338;10.128;2022-09-20T08:25:36;12.20;99.90
16968;DHT22;8600;54.338;10.128;2022-09-20T08:28:04;12.20;99.90
16968;DHT22;8600;54.338;10.128;2022-09-20T08:30:32;12.30;99.90
16968;DHT22;8600;54.338;10.128;2022-09-20T08:33:01;12.30;99.90
16968;DHT22;8600;54.338;10.128;2022-09-20T08:35:29;12.30;99.90
16968;DHT22;8600;54.338;10.128;2022-09-20T08:37:56;12.40;99.90
16968;DHT22;8600;54.338;10.128;2022-09-20T08:40:24;12.50;99.90
16968;DHT22;8600;54.338;10.128;2022-09-20T08:42:51;12.60;99.90
16968;DHT22;8600;54.338;10.128;2022-09-20T08:45:21;12.70;99.90
16968;DHT22;8600;54.338;10.128;2022-09-20T08:47:53;12.80;99.90
16968;DHT22;8600;54.338;10.128;2022-09-20T08:50:21;12.80;99.90
16968;DHT22;8600;54.338;10.128;2022-09-20T08:52:51;12.90;99.90
16968;DHT22;8600;54.338;10.128;2022-09-20T08:55:23;13.00;99.90
16968;DHT22;8600;54.338;10.128;2022-09-20T08:57:56;13.10;99.90
16968;DHT22;8600;54.338;10.128;2022-09-20T09:00:25;13.10;99.90
16968;DHT22;8600;54.338;10.128;2022-09-20T09:02:57;13.20;99.90
16968;DHT22;8600;54.338;10.128;2022-09-20T09:05:33;13.20;99.90
16968;DHT22;8600;54.338;10.128;2022-09-20T09:08:05;13.20;99.90
16968;DHT22;8600;54.338;10.128;2022-09-20T09:10:36;13.40;99.90
16968;DHT22;8600;54.338;10.128;2022-09-20T09:13:04;13.30;99.90
16968;DHT22;8600;54.338;10.128;2022-09-20T09:15:33;13.40;99.90
16968;DHT22;8600;54.338;10.128;2022-09-20T09:18:03;13.40;99.90
16968;DHT22;8600;54.338;10.128;2022-09-20T09:20:39;13.50;99.90
16968;DHT22;8600;54.338;10.128;2022-09-20T09:23:09;13.50;99.90
16968;DHT22;8600;54.338;10.128;2022-09-20T09:25:48;13.60;99.90
16968;DHT22;8600;54.338;10.128;2022-09-20T09:28:22;13.70;99.90
16968;DHT22;8600;54.338;10.128;2022-09-20T09:30:50;13.70;99.90
16968;DHT22;8600;54.338;10.128;2022-09-20T09:33:23;13.70;99.90
16968;DHT22;8600;54.338;10.128;2022-09-20T09:35:51;13.70;99.90
16968;DHT22;8600;54.338;10.128;2022-09-20T09:38:21;13.60;99.90
16968;DHT22;8600;54.338;10.128;2022-09-20T09:40:50;13.70;99.90
16968;DHT22;8600;54.338;10.128;2022-09-20T09:43:22;13.80;99.90
16968;DHT22;8600;54.338;10.128;2022-09-20T09:45:52;13.80;99.90
16968;DHT22;8600;54.338;10.128;2022-09-20T09:48:24;13.90;99.90
16968;DHT22;8600;54.338;10.128;2022-09-20T09:51:07;13.90;99.90
16968;DHT22;8600;54.338;10.128;2022-09-20T09:53:36;13.90;99.90
16968;DHT22;8600;54.338;10.128;2022-09-20T09:56:25;14.00;99.90
16968;DHT22;8600;54.338;10.128;2022-09-20T09:59:14;13.90;99.90
16968;DHT22;8600;54.338;10.128;2022-09-20T10:01:53;14.00;99.90
16968;DHT22;8600;54.338;10.128;2022-09-20T10:04:27;14.10;99.90
16968;DHT22;8600;54.338;10.128;2022-09-20T10:07:02;14.00;99.90
16968;DHT22;8600;54.338;10.128;2022-09-20T10:09:49;14.10;99.90
16968;DHT22;8600;54.338;10.128;2022-09-20T10:15:23;14.20;99.90
16968;DHT22;8600;54.338;10.128;2022-09-20T10:18:03;14.30;99.90
16968;DHT22;8600;54.338;10.128;2022-09-20T10:20:51;14.20;99.90
16968;DHT22;8600;54.338;10.128;2022-09-20T10:23:39;14.30;99.90
16968;DHT22;8600;54.338;10.128;2022-09-20T10:26:25;14.30;99.90
16968;DHT22;8600;54.338;10.128;2022-09-20T10:29:06;14.50;99.90
16968;DHT22;8600;54.338;10.128;2022-09-20T10:31:49;14.40;99.90
16968;DHT22;8600;54.338;10.128;2022-09-20T10:34:46;14.30;99.90
16968;DHT22;8600;54.338;10.128;2022-09-20T10:37:22;14.40;99.90
16968;DHT22;8600;54.338;10.128;2022-09-20T10:40:01;14.40;99.90
16968;DHT22;8600;54.338;10.128;2022-09-20T10:42:38;14.40;99.90
16968;DHT22;8600;54.338;10.128;2022-09-20T10:45:30;14.60;99.90
16968;DHT22;8600;54.338;10.128;2022-09-20T10:48:04;14.70;99.90
16968;DHT22;8600;54.338;10.128;2022-09-20T10:50:42;14.40;99.90
16968;DHT22;8600;54.338;10.128;2022-09-20T10:53:21;14.40;99.90
16968;DHT22;8600;54.338;10.128;2022-09-20T10:56:02;14.60;99.90
16968;DHT22;8600;54.338;10.128;2022-09-20T11:01:47;14.80;99.90
16968;DHT22;8600;54.338;10.128;2022-09-20T11:04:42;15.00;99.90
16968;DHT22;8600;54.338;10.128;2022-09-20T11:07:17;14.90;99.90
16968;DHT22;8600;54.338;10.128;2022-09-20T11:09:56;14.80;99.90
16968;DHT22;8600;54.338;10.128;2022-09-20T11:12:26;14.80;99.90
16968;DHT22;8600;54.338;10.128;2022-09-20T11:14:56;14.80;99.90
16968;DHT22;8600;54.338;10.128;2022-09-20T11:17:28;14.90;99.90
16968;DHT22;8600;54.338;10.128;2022-09-20T11:19:59;15.00;99.90
16968;DHT22;8600;54.338;10.128;2022-09-20T11:22:35;15.20;99.90
16968;DHT22;8600;54.338;10.128;2022-09-20T11:25:12;15.30;99.90
16968;DHT22;8600;54.338;10.128;2022-09-20T11:27:45;15.10;99.90
16968;DHT22;8600;54.338;10.128;2022-09-20T11:30:16;15.20;99.90
16968;DHT22;8600;54.338;10.128;2022-09-20T11:32:48;15.20;99.90
16968;DHT22;8600;54.338;10.128;2022-09-20T11:35:27;15.20;99.90
16968;DHT22;8600;54.338;10.128;2022-09-20T11:38:02;15.10;99.90
16968;DHT22;8600;54.338;10.128;2022-09-20T11:40:34;15.10;99.90
16968;DHT22;8600;54.338;10.128;2022-09-20T11:43:04;15.20;99.90
16968;DHT22;8600;54.338;10.128;2022-09-20T11:45:33;15.40;99.90
16968;DHT22;8600;54.338;10.128;2022-09-20T11:48:05;15.60;99.90
16968;DHT22;8600;54.338;10.128;2022-09-20T11:53:45;15.90;99.90
16968;DHT22;8600;54.338;10.128;2022-09-20T11:56:22;15.80;99.90
16968;DHT22;8600;54.338;10.128;2022-09-20T11:58:56;15.80;99.90
16968;DHT22;8600;54.338;10.128;2022-09-20T12:01:29;15.90;99.90
16968;DHT22;8600;54.338;10.128;2022-09-20T12:03:59;15.90;99.90
16968;DHT22;8600;54.338;10.128;2022-09-20T12:06:29;16.10;99.90
16968;DHT22;8600;54.338;10.128;2022-09-20T12:08:59;16.10;99.90
16968;DHT22;8600;54.338;10.128;2022-09-20T12:11:32;16.00;99.90
16968;DHT22;8600;54.338;10.128;2022-09-20T12:14:03;15.90;99.90
16968;DHT22;8600;54.338;10.128;2022-09-20T12:16:39;15.90;99.90
16968;DHT22;8600;54.338;10.128;2022-09-20T12:19:09;15.80;99.90
16968;DHT22;8600;54.338;10.128;2022-09-20T12:22:16;15.80;99.90
16968;DHT22;8600;54.338;10.128;2022-09-20T12:27:57;16.00;99.90
16968;DHT22;8600;54.338;10.128;2022-09-20T12:30:24;15.70;99.90
16968;DHT22;8600;54.338;10.128;2022-09-20T12:32:56;15.90;99.90
16968;DHT22;8600;54.338;10.128;2022-09-20T12:35:59;15.70;99.90
16968;DHT22;8600;54.338;10.128;2022-09-20T12:41:27;16.10;99.90
16968;DHT22;8600;54.338;10.128;2022-09-20T12:44:05;16.20;99.90
16968;DHT22;8600;54.338;10.128;2022-09-20T12:46:51;16.20;99.90
16968;DHT22;8600;54.338;10.128;2022-09-20T12:52:27;16.30;99.90
16968;DHT22;8600;54.338;10.128;2022-09-20T12:55:36;16.00;99.90
16968;DHT22;8600;54.338;10.128;2022-09-20T12:58:17;16.30;99.90
16968;DHT22;8600;54.338;10.128;2022-09-20T13:00:48;16.30;99.90
16968;DHT22;8600;54.338;10.128;2022-09-20T13:03:25;16.30;99.90
16968;DHT22;8600;54.338;10.128;2022-09-20T13:08:54;16.50;99.90
16968;DHT22;8600;54.338;10.128;2022-09-20T13:11:23;16.50;99.90
16968;DHT22;8600;54.338;10.128;2022-09-20T13:13:56;16.50;99.90
16968;DHT22;8600;54.338;10.128;2022-09-20T13:16:28;16.40;99.90
16968;DHT22;8600;54.338;10.128;2022-09-20T13:19:01;16.60;99.90
16968;DHT22;8600;54.338;10.128;2022-09-20T13:21:30;16.50;99.90
16968;DHT22;8600;54.338;10.128;2022-09-20T13:23:58;16.50;99.90
16968;DHT22;8600;54.338;10.128;2022-09-20T13:26:31;16.60;99.90
16968;DHT22;8600;54.338;10.128;2022-09-20T13:29:03;16.40;99.90
16968;DHT22;8600;54.338;10.128;2022-09-20T13:31:35;16.30;99.90
16968;DHT22;8600;54.338;10.128;2022-09-20T13:34:13;16.20;99.90
16968;DHT22;8600;54.338;10.128;2022-09-20T13:36:41;16.20;99.90
16968;DHT22;8600;54.338;10.128;2022-09-20T13:39:22;16.20;99.90
16968;DHT22;8600;54.338;10.128;2022-09-20T13:41:50;16.20;99.90
16968;DHT22;8600;54.338;10.128;2022-09-20T13:44:20;16.20;99.90
16968;DHT22;8600;54.338;10.128;2022-09-20T13:46:51;16.10;99.90
16968;DHT22;8600;54.338;10.128;2022-09-20T13:49:22;16.10;99.90
16968;DHT22;8600;54.338;10.128;2022-09-20T13:51:49;16.30;99.90
16968;DHT22;8600;54.338;10.128;2022-09-20T13:54:20;16.40;99.90
16968;DHT22;8600;54.338;10.128;2022-09-20T13:56:52;16.50;99.90
16968;DHT22;8600;54.338;10.128;2022-09-20T13:59:22;16.50;99.90
16968;DHT22;8600;54.338;10.128;2022-09-20T14:01:52;16.50;99.90
16968;DHT22;8600;54.338;10.128;2022-09-20T14:04:23;16.50;99.90
16968;DHT22;8600;54.338;10.128;2022-09-20T14:06:52;16.30;99.90
16968;DHT22;8600;54.338;10.128;2022-09-20T14:09:25;16.30;99.90
16968;DHT22;8600;54.338;10.128;2022-09-20T14:11:57;16.50;99.90
16968;DHT22;8600;54.338;10.128;2022-09-20T14:14:24;16.50;99.90
16968;DHT22;8600;54.338;10.128;2022-09-20T14:16:55;16.60;99.90
16968;DHT22;8600;54.338;10.128;2022-09-20T14:19:30;16.70;99.90
16968;DHT22;8600;54.338;10.128;2022-09-20T14:22:03;16.80;99.90
16968;DHT22;8600;54.338;10.128;2022-09-20T14:24:32;16.70;99.90
16968;DHT22;8600;54.338;10.128;2022-09-20T14:27:14;16.70;99.90
16968;DHT22;8600;54.338;10.128;2022-09-20T14:29:43;16.60;99.90
16968;DHT22;8600;54.338;10.128;2022-09-20T14:32:23;16.50;99.90
16968;DHT22;8600;54.338;10.128;2022-09-20T14:34:58;16.50;99.90
16968;DHT22;8600;54.338;10.128;2022-09-20T14:37:27;16.40;99.90
16968;DHT22;8600;54.338;10.128;2022-09-20T14:39:56;16.50;99.90
16968;DHT22;8600;54.338;10.128;2022-09-20T14:42:29;16.50;99.90
16968;DHT22;8600;54.338;10.128;2022-09-20T14:44:57;16.40;99.90
16968;DHT22;8600;54.338;10.128;2022-09-20T14:47:35;16.50;99.90
16968;DHT22;8600;54.338;10.128;2022-09-20T14:50:03;16.50;99.90
16968;DHT22;8600;54.338;10.128;2022-09-20T14:52:35;16.60;99.90
16968;DHT22;8600;54.338;10.128;2022-09-20T14:55:17;16.70;99.90
16968;DHT22;8600;54.338;10.128;2022-09-20T14:57:46;16.80;99.90
16968;DHT22;8600;54.338;10.128;2022-09-20T15:00:14;16.70;99.90
16968;DHT22;8600;54.338;10.128;2022-09-20T15:02:44;16.70;99.90
16968;DHT22;8600;54.338;10.128;2022-09-20T15:05:20;16.80;99.90
16968;DHT22;8600;54.338;10.128;2022-09-20T15:07:51;16.50;99.90
16968;DHT22;8600;54.338;10.128;2022-09-20T15:10:19;16.30;99.90
16968;DHT22;8600;54.338;10.128;2022-09-20T15:12:48;16.40;99.90
16968;DHT22;8600;54.338;10.128;2022-09-20T15:15:16;16.30;99.90
16968;DHT22;8600;54.338;10.128;2022-09-20T15:17:46;16.40;99.90
16968;DHT22;8600;54.338;10.128;2022-09-20T15:20:16;16.50;99.90
16968;DHT22;8600;54.338;10.128;2022-09-20T15:22:43;16.60;99.90
16968;DHT22;8600;54.338;10.128;2022-09-20T15:25:14;16.70;99.90
16968;DHT22;8600;54.338;10.128;2022-09-20T15:27:42;16.50;99.90
16968;DHT22;8600;54.338;10.128;2022-09-20T15:30:12;16.40;99.90
16968;DHT22;8600;54.338;10.128;2022-09-20T15:32:40;16.30;99.90
16968;DHT22;8600;54.338;10.128;2022-09-20T15:35:09;16.30;99.90
16968;DHT22;8600;54.338;10.128;2022-09-20T15:37:36;16.20;99.90
16968;DHT22;8600;54.338;10.128;2022-09-20T15:40:04;16.30;99.90
16968;DHT22;8600;54.338;10.128;2022-09-20T15:42:31;16.20;99.90
16968;DHT22;8600;54.338;10.128;2022-09-20T15:45:00;16.10;99.90
16968;DHT22;8600;54.338;10.128;2022-09-20T15:47:30;16.00;99.90
16968;DHT22;8600;54.338;10.128;2022-09-20T15:49:56;15.90;99.90
16968;DHT22;8600;54.338;10.128;2022-09-20T15:52:25;16.00;99.90
16968;DHT22;8600;54.338;10.128;2022-09-20T15:54:53;16.00;99.90
16968;DHT22;8600;54.338;10.128;2022-09-20T15:57:24;15.90;99.90
16968;DHT22;8600;54.338;10.128;2022-09-20T15:59:51;16.00;99.90
16968;DHT22;8600;54.338;10.128;2022-09-20T16:02:18;16.10;99.90
16968;DHT22;8600;54.338;10.128;2022-09-20T16:04:46;16.10;99.90
16968;DHT22;8600;54.338;10.128;2022-09-20T16:07:15;16.00;99.90
16968;DHT22;8600;54.338;10.128;2022-09-20T16:09:50;16.00;99.90
16968;DHT22;8600;54.338;10.128;2022-09-20T16:12:19;15.90;99.90
16968;DHT22;8600;54.338;10.128;2022-09-20T16:14:46;15.90;99.90
16968;DHT22;8600;54.338;10.128;2022-09-20T16:17:12;15.80;99.90
16968;DHT22;8600;54.338;10.128;2022-09-20T16:19:39;15.70;99.90
16968;DHT22;8600;54.338;10.128;2022-09-20T16:22:06;15.60;99.90
16968;DHT22;8600;54.338;10.128;2022-09-20T16:24:34;15.60;99.90
16968;DHT22;8600;54.338;10.128;2022-09-20T16:27:05;15.50;99.90
16968;DHT22;8600;54.338;10.128;2022-09-20T16:29:32;15.40;99.90
16968;DHT22;8600;54.338;10.128;2022-09-20T16:32:00;15.40;99.90
16968;DHT22;8600;54.338;10.128;2022-09-20T16:34:29;15.40;99.90
16968;DHT22;8600;54.338;10.128;2022-09-20T16:36:58;15.40;99.90
16968;DHT22;8600;54.338;10.128;2022-09-20T16:39:26;15.40;99.90
16968;DHT22;8600;54.338;10.128;2022-09-20T16:41:54;15.30;99.90
16968;DHT22;8600;54.338;10.128;2022-09-20T16:44:23;15.20;99.90
16968;DHT22;8600;54.338;10.128;2022-09-20T16:46:50;15.10;99.90
16968;DHT22;8600;54.338;10.128;2022-09-20T16:49:20;15.20;99.90
16968;DHT22;8600;54.338;10.128;2022-09-20T16:51:47;15.20;99.90
16968;DHT22;8600;54.338;10.128;2022-09-20T16:54:15;15.10;99.90
16968;DHT22;8600;54.338;10.128;2022-09-20T16:56:44;15.10;99.90
16968;DHT22;8600;54.338;10.128;2022-09-20T16:59:12;15.00;99.90
16968;DHT22;8600;54.338;10.128;2022-09-20T17:01:42;14.90;99.90
16968;DHT22;8600;54.338;10.128;2022-09-20T17:04:10;14.90;99.90
16968;DHT22;8600;54.338;10.128;2022-09-20T17:06:39;14.80;99.90
16968;DHT22;8600;54.338;10.128;2022-09-20T17:09:08;14.80;99.90
16968;DHT22;8600;54.338;10.128;2022-09-20T17:11:37;14.70;99.90
16968;DHT22;8600;54.338;10.128;2022-09-20T17:14:07;14.70;99.90
16968;DHT22;8600;54.338;10.128;2022-09-20T17:16:36;14.60;99.90
16968;DHT22;8600;54.338;10.128;2022-09-20T17:19:06;14.50;99.90
16968;DHT22;8600;54.338;10.128;2022-09-20T17:21:35;14.40;99.90
16968;DHT22;8600;54.338;10.128;2022-09-20T17:24:03;14.40;99.90